sensor_id;sensor_type;location;lat;lon;timestamp;pressure;altitude;pressure_sealevel;temperature;humidity
51687;BME280;37774;52.192;4.584;2023-07-28T00:01:01;100213.72;;;18.75;100.00
51687;BME280;37774;52.192;4.584;2023-07-28T00:03:48;100234.47;;;18.63;100.00
51687;BME280;37774;52.192;4.584;2023-07-28T00:06:33;100210.22;;;18.74;100.00
51687;BME280;37774;52.192;4.584;2023-07-28T00:09:18;100197.16;;;18.73;100.00
51687;BME280;37774;52.192;4.584;2023-07-28T00:12:04;100194.25;;;18.61;100.00
51687;BME280;37774;52.192;4.584;2023-07-28T00:14:51;100206.00;;;18.72;100.00
51687;BME280;37774;52.192;4.584;2023-07-28T00:17:36;100093.69;;;18.03;100.00
51687;BME280;37774;52.192;4.584;2023-07-28T00:20:22;100124.31;;;18.22;100.00
51687;BME280;37774;52.192;4.584;2023-07-28T00:23:08;99996.16;;;17.57;100.00
51687;BME280;37774;52.192;4.584;2023-07-28T00:25:53;100168.88;;;18.76;100.00
51687;BME280;37774;52.192;4.584;2023-07-28T00:28:38;100093.50;;;18.42;100.00
51687;BME280;37774;52.192;4.584;2023-07-28T00:31:25;100165.44;;;18.92;100.00
51687;BME280;37774;52.192;4.584;2023-07-28T00:34:11;100078.31;;;18.64;100.00
51687;BME280;37774;52.192;4.584;2023-07-28T00:36:56;100105.94;;;18.89;100.00
51687;BME280;37774;52.192;4.584;2023-07-28T00:39:41;100110.75;;;18.81;100.00
51687;BME280;37774;52.192;4.584;2023-07-28T00:42:27;100103.19;;;18.91;100.00
51687;BME280;37774;52.192;4.584;2023-07-28T00:45:12;99987.94;;;18.32;100.00
51687;BME280;37774;52.192;4.584;2023-07-28T00:47:59;100057.00;;;18.69;100.00
51687;BME280;37774;52.192;4.584;2023-07-28T00:50:46;100073.47;;;18.89;100.00
51687;BME280;37774;52.192;4.584;2023-07-28T00:53:32;100044.50;;;18.57;100.00
51687;BME280;37774;52.192;4.584;2023-07-28T00:56:18;100086.63;;;18.89;100.00
51687;BME280;37774;52.192;4.584;2023-07-28T00:59:04;100054.78;;;18.61;100.00
51687;BME280;37774;52.192;4.584;2023-07-28T01:01:50;100049.00;;;18.54;100.00
51687;BME280;37774;52.192;4.584;2023-07-28T01:04:37;100101.59;;;18.88;100.00
51687;BME280;37774;52.192;4.584;2023-07-28T01:07:26;100048.94;;;18.56;100.00
51687;BME280;37774;52.192;4.584;2023-07-28T01:10:18;100090.13;;;18.89;100.00
51687;BME280;37774;52.192;4.584;2023-07-28T01:13:07;100091.94;;;19.05;100.00
51687;BME280;37774;52.192;4.584;2023-07-28T01:15:55;99944.00;;;18.34;100.00
51687;BME280;37774;52.192;4.584;2023-07-28T01:18:42;100047.06;;;18.90;100.00
51687;BME280;37774;52.192;4.584;2023-07-28T01:21:31;100055.31;;;18.84;100.00
51687;BME280;37774;52.192;4.584;2023-07-28T01:24:21;99997.81;;;18.44;100.00
51687;BME280;37774;52.192;4.584;2023-07-28T01:27:11;99984.38;;;18.49;100.00
51687;BME280;37774;52.192;4.584;2023-07-28T01:29:56;100061.53;;;18.99;100.00
51687;BME280;37774;52.192;4.584;2023-07-28T01:32:42;100038.06;;;18.78;100.00
51687;BME280;37774;52.192;4.584;2023-07-28T01:35:28;100051.13;;;18.96;100.00
51687;BME280;37774;52.192;4.584;2023-07-28T01:38:13;99949.44;;;18.47;100.00
51687;BME280;37774;52.192;4.584;2023-07-28T01:41:00;100042.75;;;18.89;100.00
51687;BME280;37774;52.192;4.584;2023-07-28T01:43:46;99883.72;;;17.97;100.00
51687;BME280;37774;52.192;4.584;2023-07-28T01:46:32;99982.03;;;18.76;100.00
51687;BME280;37774;52.192;4.584;2023-07-28T01:49:17;99950.72;;;18.56;100.00
51687;BME280;37774;52.192;4.584;2023-07-28T01:52:04;100006.66;;;18.91;100.00
51687;BME280;37774;52.192;4.584;2023-07-28T01:54:49;100009.75;;;19.00;100.00
51687;BME280;37774;52.192;4.584;2023-07-28T01:57:38;100000.63;;;19.05;100.00
51687;BME280;37774;52.192;4.584;2023-07-28T02:00:25;99925.53;;;18.67;100.00
51687;BME280;37774;52.192;4.584;2023-07-28T02:03:10;99901.44;;;18.59;100.00
51687;BME280;37774;52.192;4.584;2023-07-28T02:05:56;99957.41;;;18.93;100.00
51687;BME280;37774;52.192;4.584;2023-07-28T02:08:41;99943.56;;;19.06;100.00
51687;BME280;37774;52.192;4.584;2023-07-28T02:11:27;99936.38;;;19.09;100.00
51687;BME280;37774;52.192;4.584;2023-07-28T02:14:12;99928.75;;;19.19;100.00
51687;BME280;37774;52.192;4.584;2023-07-28T02:16:59;99908.72;;;19.17;100.00
51687;BME280;37774;52.192;4.584;2023-07-28T02:19:44;99832.59;;;18.51;100.00
51687;BME280;37774;52.192;4.584;2023-07-28T02:22:30;99871.97;;;18.68;100.00
51687;BME280;37774;52.192;4.584;2023-07-28T02:25:16;99961.63;;;18.96;100.00
51687;BME280;37774;52.192;4.584;2023-07-28T02:28:01;99947.56;;;19.13;100.00
51687;BME280;37774;52.192;4.584;2023-07-28T02:30:46;99900.09;;;18.82;100.00
51687;BME280;37774;52.192;4.584;2023-07-28T02:33:33;99924.44;;;19.18;100.00
51687;BME280;37774;52.192;4.584;2023-07-28T02:36:20;99908.28;;;19.39;100.00
51687;BME280;37774;52.192;4.584;2023-07-28T02:39:06;99826.97;;;19.04;100.00
51687;BME280;37774;52.192;4.584;2023-07-28T02:41:51;99837.28;;;19.23;100.00
51687;BME280;37774;52.192;4.584;2023-07-28T02:44:37;99844.66;;;19.16;100.00
51687;BME280;37774;52.192;4.584;2023-07-28T02:47:22;99802.28;;;18.90;100.00
51687;BME280;37774;52.192;4.584;2023-07-28T02:50:09;99788.13;;;18.62;100.00
51687;BME280;37774;52.192;4.584;2023-07-28T02:52:55;99739.53;;;18.07;100.00
51687;BME280;37774;52.192;4.584;2023-07-28T02:55:41;99856.13;;;18.38;100.00
51687;BME280;37774;52.192;4.584;2023-07-28T02:58:27;99985.59;;;18.91;100.00
51687;BME280;37774;52.192;4.584;2023-07-28T03:01:12;100018.00;;;19.09;100.00
51687;BME280;37774;52.192;4.584;2023-07-28T03:03:57;100015.50;;;19.06;100.00
51687;BME280;37774;52.192;4.584;2023-07-28T03:06:44;99941.03;;;18.40;100.00
51687;BME280;37774;52.192;4.584;2023-07-28T03:09:30;100026.09;;;18.73;100.00
51687;BME280;37774;52.192;4.584;2023-07-28T03:12:15;99972.09;;;18.49;100.00
51687;BME280;37774;52.192;4.584;2023-07-28T03:15:01;100004.28;;;18.87;100.00
51687;BME280;37774;52.192;4.584;2023-07-28T03:17:46;100019.75;;;19.09;100.00
51687;BME280;37774;52.192;4.584;2023-07-28T03:20:31;99997.00;;;19.08;100.00
51687;BME280;37774;52.192;4.584;2023-07-28T03:23:18;100008.28;;;19.10;100.00
51687;BME280;37774;52.192;4.584;2023-07-28T03:26:03;99926.97;;;18.57;100.00
51687;BME280;37774;52.192;4.584;2023-07-28T03:28:49;99950.44;;;18.92;100.00
51687;BME280;37774;52.192;4.584;2023-07-28T03:31:34;99907.66;;;19.05;100.00
51687;BME280;37774;52.192;4.584;2023-07-28T03:34:20;99864.38;;;18.78;100.00
51687;BME280;37774;52.192;4.584;2023-07-28T03:37:05;99856.13;;;19.01;100.00
51687;BME280;37774;52.192;4.584;2023-07-28T03:39:52;99778.09;;;18.53;100.00
51687;BME280;37774;52.192;4.584;2023-07-28T03:42:38;99768.19;;;18.58;100.00
51687;BME280;37774;52.192;4.584;2023-07-28T03:45:23;99779.16;;;18.81;100.00
51687;BME280;37774;52.192;4.584;2023-07-28T03:48:08;99708.63;;;18.27;100.00
51687;BME280;37774;52.192;4.584;2023-07-28T03:50:54;99822.91;;;18.98;100.00
51687;BME280;37774;52.192;4.584;2023-07-28T03:53:39;99653.88;;;18.33;100.00
51687;BME280;37774;52.192;4.584;2023-07-28T03:56:26;99721.44;;;18.92;100.00
51687;BME280;37774;52.192;4.584;2023-07-28T03:59:12;99641.72;;;18.61;100.00
51687;BME280;37774;52.192;4.584;2023-07-28T04:01:58;99638.72;;;18.82;100.00
51687;BME280;37774;52.192;4.584;2023-07-28T04:04:43;99605.16;;;18.86;100.00
51687;BME280;37774;52.192;4.584;2023-07-28T04:07:29;99529.03;;;18.68;100.00
51687;BME280;37774;52.192;4.584;2023-07-28T04:10:14;99494.72;;;18.84;100.00
51687;BME280;37774;52.192;4.584;2023-07-28T04:13:01;99338.06;;;18.51;100.00
51687;BME280;37774;52.192;4.584;2023-07-28T04:15:47;99271.03;;;18.44;100.00
51687;BME280;37774;52.192;4.584;2023-07-28T04:18:32;99277.09;;;18.31;100.00
51687;BME280;37774;52.192;4.584;2023-07-28T04:21:17;99277.13;;;18.72;100.00
51687;BME280;37774;52.192;4.584;2023-07-28T04:24:03;99198.28;;;18.57;100.00
51687;BME280;37774;52.192;4.584;2023-07-28T04:26:48;99200.94;;;18.83;100.00
51687;BME280;37774;52.192;4.584;2023-07-28T04:29:35;99132.91;;;18.51;100.00
51687;BME280;37774;52.192;4.584;2023-07-28T04:32:20;99100.41;;;18.78;100.00
51687;BME280;37774;52.192;4.584;2023-07-28T04:35:06;99013.50;;;18.66;100.00
51687;BME280;37774;52.192;4.584;2023-07-28T04:37:52;98963.75;;;18.88;100.00
51687;BME280;37774;52.192;4.584;2023-07-28T04:40:37;98961.41;;;19.09;100.00
51687;BME280;37774;52.192;4.584;2023-07-28T04:43:23;98949.66;;;19.02;100.00
51687;BME280;37774;52.192;4.584;2023-07-28T04:46:10;98904.47;;;18.95;100.00
51687;BME280;37774;52.192;4.584;2023-07-28T04:48:56;98977.47;;;19.17;100.00
51687;BME280;37774;52.192;4.584;2023-07-28T04:51:41;98993.63;;;19.12;100.00
51687;BME280;37774;52.192;4.584;2023-07-28T04:54:27;98994.91;;;19.07;100.00
51687;BME280;37774;52.192;4.584;2023-07-28T04:57:12;99039.25;;;19.24;100.00
51687;BME280;37774;52.192;4.584;2023-07-28T04:59:58;99067.72;;;19.19;100.00
51687;BME280;37774;52.192;4.584;2023-07-28T05:02:44;99057.22;;;18.93;100.00
51687;BME280;37774;52.192;4.584;2023-07-28T05:05:30;99010.84;;;18.79;100.00
51687;BME280;37774;52.192;4.584;2023-07-28T05:08:15;99056.28;;;18.94;100.00
51687;BME280;37774;52.192;4.584;2023-07-28T05:11:01;99062.38;;;19.08;100.00
51687;BME280;37774;52.192;4.584;2023-07-28T05:13:46;99115.75;;;19.23;100.00
51687;BME280;37774;52.192;4.584;2023-07-28T05:16:32;99102.44;;;19.37;100.00
51687;BME280;37774;52.192;4.584;2023-07-28T05:19:22;98891.25;;;17.83;100.00
51687;BME280;37774;52.192;4.584;2023-07-28T05:22:07;99117.00;;;19.30;100.00
51687;BME280;37774;52.192;4.584;2023-07-28T05:24:52;99090.88;;;19.27;100.00
51687;BME280;37774;52.192;4.584;2023-07-28T05:27:38;99112.25;;;19.22;100.00
51687;BME280;37774;52.192;4.584;2023-07-28T05:30:23;99114.56;;;19.27;100.00
51687;BME280;37774;52.192;4.584;2023-07-28T05:33:08;99102.81;;;19.20;100.00
51687;BME280;37774;52.192;4.584;2023-07-28T05:36:02;99091.84;;;19.13;100.00
51687;BME280;37774;52.192;4.584;2023-07-28T05:38:47;99124.38;;;19.25;100.00
51687;BME280;37774;52.192;4.584;2023-07-28T05:41:33;99122.03;;;19.33;100.00
51687;BME280;37774;52.192;4.584;2023-07-28T05:44:19;98940.28;;;18.10;100.00
51687;BME280;37774;52.192;4.584;2023-07-28T05:47:05;99046.94;;;18.77;100.00
51687;BME280;37774;52.192;4.584;2023-07-28T05:49:50;98807.00;;;17.21;100.00
51687;BME280;37774;52.192;4.584;2023-07-28T05:52:38;99133.22;;;19.24;100.00
51687;BME280;37774;52.192;4.584;2023-07-28T05:55:24;99135.78;;;19.12;100.00
51687;BME280;37774;52.192;4.584;2023-07-28T05:58:09;99116.19;;;19.04;100.00
51687;BME280;37774;52.192;4.584;2023-07-28T06:00:54;99107.88;;;19.10;100.00
51687;BME280;37774;52.192;4.584;2023-07-28T06:03:40;99174.19;;;19.02;100.00
51687;BME280;37774;52.192;4.584;2023-07-28T06:06:26;99106.28;;;18.81;100.00
51687;BME280;37774;52.192;4.584;2023-07-28T06:09:13;99123.59;;;18.98;100.00
51687;BME280;37774;52.192;4.584;2023-07-28T06:11:58;99137.88;;;19.07;100.00
51687;BME280;37774;52.192;4.584;2023-07-28T06:14:44;98948.53;;;17.65;100.00
51687;BME280;37774;52.192;4.584;2023-07-28T06:17:29;99188.03;;;19.43;100.00
51687;BME280;37774;52.192;4.584;2023-07-28T06:20:15;99097.47;;;18.69;100.00
51687;BME280;37774;52.192;4.584;2023-07-28T06:23:00;99195.66;;;19.35;100.00
51687;BME280;37774;52.192;4.584;2023-07-28T06:25:47;99211.44;;;19.35;100.00
51687;BME280;37774;52.192;4.584;2023-07-28T06:28:33;99206.91;;;19.37;100.00
51687;BME280;37774;52.192;4.584;2023-07-28T06:31:18;99174.94;;;18.91;100.00
51687;BME280;37774;52.192;4.584;2023-07-28T06:34:04;99241.88;;;19.52;100.00
51687;BME280;37774;52.192;4.584;2023-07-28T06:36:49;99248.00;;;19.39;100.00
51687;BME280;37774;52.192;4.584;2023-07-28T06:39:35;99231.00;;;19.56;100.00
51687;BME280;37774;52.192;4.584;2023-07-28T06:42:22;99244.00;;;19.47;100.00
51687;BME280;37774;52.192;4.584;2023-07-28T06:45:09;99198.88;;;19.51;100.00
51687;BME280;37774;52.192;4.584;2023-07-28T06:47:54;99115.78;;;18.97;100.00
51687;BME280;37774;52.192;4.584;2023-07-28T06:50:39;99174.50;;;19.36;100.00
51687;BME280;37774;52.192;4.584;2023-07-28T06:53:24;99179.84;;;19.48;100.00
51687;BME280;37774;52.192;4.584;2023-07-28T06:56:11;99115.53;;;19.26;100.00
51687;BME280;37774;52.192;4.584;2023-07-28T06:58:57;99123.00;;;19.32;100.00
51687;BME280;37774;52.192;4.584;2023-07-28T07:01:43;99148.16;;;19.61;100.00
51687;BME280;37774;52.192;4.584;2023-07-28T07:04:28;99162.38;;;19.71;100.00
51687;BME280;37774;52.192;4.584;2023-07-28T07:07:14;99118.06;;;19.52;100.00
51687;BME280;37774;52.192;4.584;2023-07-28T07:09:59;99111.28;;;19.61;100.00
51687;BME280;37774;52.192;4.584;2023-07-28T07:12:45;99047.41;;;19.46;100.00
51687;BME280;37774;52.192;4.584;2023-07-28T07:15:33;98997.56;;;19.67;100.00
51687;BME280;37774;52.192;4.584;2023-07-28T07:18:19;99012.34;;;19.56;100.00
51687;BME280;37774;52.192;4.584;2023-07-28T07:21:05;98970.34;;;19.31;100.00
51687;BME280;37774;52.192;4.584;2023-07-28T07:23:51;98998.31;;;19.45;100.00
51687;BME280;37774;52.192;4.584;2023-07-28T07:26:36;98991.84;;;19.49;100.00
51687;BME280;37774;52.192;4.584;2023-07-28T07:29:22;99095.91;;;19.79;100.00
51687;BME280;37774;52.192;4.584;2023-07-28T07:32:09;99114.94;;;19.71;100.00
51687;BME280;37774;52.192;4.584;2023-07-28T07:34:55;99057.25;;;19.55;100.00
51687;BME280;37774;52.192;4.584;2023-07-28T07:37:41;99147.75;;;19.67;100.00
51687;BME280;37774;52.192;4.584;2023-07-28T07:40:27;99187.19;;;19.80;100.00
51687;BME280;37774;52.192;4.584;2023-07-28T07:43:13;99182.50;;;19.72;100.00
51687;BME280;37774;52.192;4.584;2023-07-28T07:46:04;99233.22;;;19.63;100.00
51687;BME280;37774;52.192;4.584;2023-07-28T07:48:51;99346.81;;;19.84;100.00
51687;BME280;37774;52.192;4.584;2023-07-28T07:51:36;99421.91;;;19.91;100.00
51687;BME280;37774;52.192;4.584;2023-07-28T07:54:22;99498.19;;;19.80;100.00
51687;BME280;37774;52.192;4.584;2023-07-28T07:57:08;99515.91;;;19.65;100.00
51687;BME280;37774;52.192;4.584;2023-07-28T07:59:53;99430.59;;;19.00;100.00
51687;BME280;37774;52.192;4.584;2023-07-28T08:02:38;99425.66;;;18.80;100.00
51687;BME280;37774;52.192;4.584;2023-07-28T08:05:26;99713.69;;;20.31;100.00
51687;BME280;37774;52.192;4.584;2023-07-28T08:08:12;99719.94;;;20.03;100.00
51687;BME280;37774;52.192;4.584;2023-07-28T08:10:59;99806.13;;;20.29;100.00
51687;BME280;37774;52.192;4.584;2023-07-28T08:13:44;99810.50;;;20.43;100.00
51687;BME280;37774;52.192;4.584;2023-07-28T08:16:32;99813.59;;;20.50;100.00
51687;BME280;37774;52.192;4.584;2023-07-28T08:19:18;99895.03;;;20.84;100.00
51687;BME280;37774;52.192;4.584;2023-07-28T08:22:05;99899.91;;;20.90;100.00
51687;BME280;37774;52.192;4.584;2023-07-28T08:24:50;99887.88;;;20.99;100.00
51687;BME280;37774;52.192;4.584;2023-07-28T08:27:36;99855.97;;;20.89;100.00
51687;BME280;37774;52.192;4.584;2023-07-28T08:30:21;99798.84;;;20.61;100.00
51687;BME280;37774;52.192;4.584;2023-07-28T08:33:06;99793.88;;;20.96;100.00
51687;BME280;37774;52.192;4.584;2023-07-28T08:35:52;99742.13;;;20.81;100.00
51687;BME280;37774;52.192;4.584;2023-07-28T08:38:39;99724.66;;;21.17;100.00
51687;BME280;37774;52.192;4.584;2023-07-28T08:41:25;99683.56;;;21.26;100.00
51687;BME280;37774;52.192;4.584;2023-07-28T08:44:10;99685.66;;;21.34;100.00
51687;BME280;37774;52.192;4.584;2023-07-28T08:46:55;99570.75;;;21.02;100.00
51687;BME280;37774;52.192;4.584;2023-07-28T08:49:41;99487.19;;;20.77;100.00
51687;BME280;37774;52.192;4.584;2023-07-28T08:52:26;99502.00;;;21.28;100.00
51687;BME280;37774;52.192;4.584;2023-07-28T08:55:13;99474.91;;;21.73;100.00
51687;BME280;37774;52.192;4.584;2023-07-28T08:58:13;99470.72;;;21.46;100.00
51687;BME280;37774;52.192;4.584;2023-07-28T09:00:59;99527.16;;;22.05;100.00
51687;BME280;37774;52.192;4.584;2023-07-28T09:03:49;99413.75;;;21.30;100.00
51687;BME280;37774;52.192;4.584;2023-07-28T09:06:34;99414.22;;;21.24;100.00
51687;BME280;37774;52.192;4.584;2023-07-28T09:09:21;99541.19;;;22.06;100.00
51687;BME280;37774;52.192;4.584;2023-07-28T09:12:08;99547.59;;;22.14;100.00
51687;BME280;37774;52.192;4.584;2023-07-28T09:14:57;99558.66;;;22.08;100.00
51687;BME280;37774;52.192;4.584;2023-07-28T09:17:46;99556.50;;;22.13;100.00
51687;BME280;37774;52.192;4.584;2023-07-28T09:20:34;99437.91;;;21.37;100.00
51687;BME280;37774;52.192;4.584;2023-07-28T09:23:27;99424.69;;;21.01;100.00
51687;BME280;37774;52.192;4.584;2023-07-28T09:26:15;99583.69;;;22.15;100.00
51687;BME280;37774;52.192;4.584;2023-07-28T09:29:11;99554.03;;;21.87;100.00
51687;BME280;37774;52.192;4.584;2023-07-28T09:32:02;99559.19;;;21.89;100.00
51687;BME280;37774;52.192;4.584;2023-07-28T09:34:48;99606.13;;;22.10;100.00
51687;BME280;37774;52.192;4.584;2023-07-28T09:37:37;99606.38;;;22.18;100.00
51687;BME280;37774;52.192;4.584;2023-07-28T09:40:24;99593.88;;;21.73;100.00
51687;BME280;37774;52.192;4.584;2023-07-28T09:43:11;99619.34;;;22.10;100.00
51687;BME280;37774;52.192;4.584;2023-07-28T09:45:58;99611.47;;;21.61;100.00
51687;BME280;37774;52.192;4.584;2023-07-28T09:48:45;99517.00;;;20.79;100.00
51687;BME280;37774;52.192;4.584;2023-07-28T09:51:34;99660.19;;;21.94;100.00
51687;BME280;37774;52.192;4.584;2023-07-28T09:54:23;99652.25;;;21.94;100.00
51687;BME280;37774;52.192;4.584;2023-07-28T09:57:12;99586.84;;;21.36;100.00
51687;BME280;37774;52.192;4.584;2023-07-28T10:00:00;99646.78;;;22.09;100.00
51687;BME280;37774;52.192;4.584;2023-07-28T10:02:48;99598.13;;;21.63;100.00
51687;BME280;37774;52.192;4.584;2023-07-28T10:05:34;99584.22;;;21.23;100.00
51687;BME280;37774;52.192;4.584;2023-07-28T10:08:21;99615.25;;;21.70;100.00
51687;BME280;37774;52.192;4.584;2023-07-28T10:11:06;99628.41;;;21.83;100.00
51687;BME280;37774;52.192;4.584;2023-07-28T10:13:54;99751.25;;;22.03;100.00
51687;BME280;37774;52.192;4.584;2023-07-28T10:16:40;99648.28;;;21.88;100.00
51687;BME280;37774;52.192;4.584;2023-07-28T10:19:27;99738.16;;;22.37;100.00
51687;BME280;37774;52.192;4.584;2023-07-28T10:22:12;99673.72;;;21.78;100.00
51687;BME280;37774;52.192;4.584;2023-07-28T10:25:01;99751.69;;;21.97;100.00
51687;BME280;37774;52.192;4.584;2023-07-28T10:27:46;99790.63;;;22.43;100.00
51687;BME280;37774;52.192;4.584;2023-07-28T10:30:36;99863.69;;;22.70;100.00
51687;BME280;37774;52.192;4.584;2023-07-28T10:33:33;99867.69;;;22.52;100.00
51687;BME280;37774;52.192;4.584;2023-07-28T10:36:33;99942.63;;;22.65;100.00
51687;BME280;37774;52.192;4.584;2023-07-28T10:39:19;99942.78;;;22.38;100.00
51687;BME280;37774;52.192;4.584;2023-07-28T10:42:07;99942.31;;;22.07;100.00
51687;BME280;37774;52.192;4.584;2023-07-28T10:44:55;99910.16;;;22.00;100.00
51687;BME280;37774;52.192;4.584;2023-07-28T10:47:41;99737.00;;;20.78;100.00
51687;BME280;37774;52.192;4.584;2023-07-28T10:50:31;99736.34;;;20.74;100.00
51687;BME280;37774;52.192;4.584;2023-07-28T10:53:25;99735.78;;;20.56;100.00
51687;BME280;37774;52.192;4.584;2023-07-28T10:56:12;100087.75;;;22.47;100.00
51687;BME280;37774;52.192;4.584;2023-07-28T10:59:02;99847.91;;;20.63;100.00
51687;BME280;37774;52.192;4.584;2023-07-28T11:01:48;100144.69;;;22.91;100.00
51687;BME280;37774;52.192;4.584;2023-07-28T11:04:33;100220.44;;;22.81;100.00
51687;BME280;37774;52.192;4.584;2023-07-28T11:07:20;100171.72;;;22.45;100.00
51687;BME280;37774;52.192;4.584;2023-07-28T11:10:09;100242.91;;;23.01;100.00
51687;BME280;37774;52.192;4.584;2023-07-28T11:13:06;100234.53;;;22.69;100.00
51687;BME280;37774;52.192;4.584;2023-07-28T11:15:52;100226.38;;;22.72;100.00
51687;BME280;37774;52.192;4.584;2023-07-28T11:18:39;100156.41;;;22.23;100.00
51687;BME280;37774;52.192;4.584;2023-07-28T11:21:25;100220.50;;;22.41;100.00
51687;BME280;37774;52.192;4.584;2023-07-28T11:24:28;100056.16;;;21.24;100.00
51687;BME280;37774;52.192;4.584;2023-07-28T11:27:17;100116.09;;;21.79;100.00
51687;BME280;37774;52.192;4.584;2023-07-28T11:30:07;100168.16;;;21.78;100.00
51687;BME280;37774;52.192;4.584;2023-07-28T11:32:55;100372.72;;;23.01;100.00
51687;BME280;37774;52.192;4.584;2023-07-28T11:35:44;100058.19;;;21.06;100.00
51687;BME280;37774;52.192;4.584;2023-07-28T11:38:30;100346.31;;;23.00;100.00
51687;BME280;37774;52.192;4.584;2023-07-28T11:41:17;100357.03;;;23.11;100.00
51687;BME280;37774;52.192;4.584;2023-07-28T11:44:05;100449.78;;;23.64;100.00
51687;BME280;37774;52.192;4.584;2023-07-28T11:46:53;100405.47;;;23.00;100.00
51687;BME280;37774;52.192;4.584;2023-07-28T11:49:46;100421.06;;;23.05;100.00
51687;BME280;37774;52.192;4.584;2023-07-28T11:52:32;100355.06;;;23.28;100.00
51687;BME280;37774;52.192;4.584;2023-07-28T11:55:21;100336.00;;;22.69;100.00
51687;BME280;37774;52.192;4.584;2023-07-28T11:58:11;100461.56;;;23.47;100.00
51687;BME280;37774;52.192;4.584;2023-07-28T12:01:07;100551.38;;;23.92;100.00
51687;BME280;37774;52.192;4.584;2023-07-28T12:03:56;100501.34;;;23.47;100.00
51687;BME280;37774;52.192;4.584;2023-07-28T12:07:02;100252.19;;;21.58;100.00
51687;BME280;37774;52.192;4.584;2023-07-28T12:09:51;100542.50;;;23.79;100.00
51687;BME280;37774;52.192;4.584;2023-07-28T12:12:41;100577.16;;;23.90;100.00
51687;BME280;37774;52.192;4.584;2023-07-28T12:15:32;100637.03;;;24.07;100.00
51687;BME280;37774;52.192;4.584;2023-07-28T12:18:29;100567.72;;;23.46;100.00
51687;BME280;37774;52.192;4.584;2023-07-28T12:21:15;100617.84;;;23.36;100.00
51687;BME280;37774;52.192;4.584;2023-07-28T12:24:02;100700.19;;;23.75;100.00
51687;BME280;37774;52.192;4.584;2023-07-28T12:26:51;100707.19;;;23.76;100.00
51687;BME280;37774;52.192;4.584;2023-07-28T12:29:37;100707.59;;;23.70;100.00
51687;BME280;37774;52.192;4.584;2023-07-28T12:32:27;100400.03;;;21.62;100.00
51687;BME280;37774;52.192;4.584;2023-07-28T12:35:14;100437.88;;;21.78;100.00
51687;BME280;37774;52.192;4.584;2023-07-28T12:38:00;100657.53;;;23.23;100.00
51687;BME280;37774;52.192;4.584;2023-07-28T12:40:48;100524.28;;;22.79;100.00
51687;BME280;37774;52.192;4.584;2023-07-28T12:43:34;100670.28;;;23.45;100.00
51687;BME280;37774;52.192;4.584;2023-07-28T12:46:25;100645.88;;;23.11;100.00
51687;BME280;37774;52.192;4.584;2023-07-28T12:49:11;100748.25;;;23.70;100.00
51687;BME280;37774;52.192;4.584;2023-07-28T12:52:01;100582.84;;;22.74;100.00
51687;BME280;37774;52.192;4.584;2023-07-28T12:54:48;100665.72;;;22.91;100.00
51687;BME280;37774;52.192;4.584;2023-07-28T12:57:37;100380.22;;;21.54;100.00
51687;BME280;37774;52.192;4.584;2023-07-28T13:00:23;100387.03;;;21.13;100.00
51687;BME280;37774;52.192;4.584;2023-07-28T13:03:12;100698.81;;;23.13;100.00
51687;BME280;37774;52.192;4.584;2023-07-28T13:05:59;100786.19;;;23.43;100.00
51687;BME280;37774;52.192;4.584;2023-07-28T13:08:47;100485.81;;;21.72;100.00
51687;BME280;37774;52.192;4.584;2023-07-28T13:11:36;100535.38;;;22.13;100.00
51687;BME280;37774;52.192;4.584;2023-07-28T13:14:24;100524.13;;;22.39;100.00
51687;BME280;37774;52.192;4.584;2023-07-28T13:17:10;100653.28;;;23.06;100.00
51687;BME280;37774;52.192;4.584;2023-07-28T13:19:58;100790.28;;;23.76;100.00
51687;BME280;37774;52.192;4.584;2023-07-28T13:22:45;100786.13;;;24.14;100.00
51687;BME280;37774;52.192;4.584;2023-07-28T13:25:33;100732.69;;;23.78;100.00
51687;BME280;37774;52.192;4.584;2023-07-28T13:28:18;100828.59;;;24.14;100.00
51687;BME280;37774;52.192;4.584;2023-07-28T13:31:03;100795.06;;;23.99;100.00
51687;BME280;37774;52.192;4.584;2023-07-28T13:33:49;100842.16;;;24.64;100.00
51687;BME280;37774;52.192;4.584;2023-07-28T13:36:34;100813.16;;;24.34;100.00
51687;BME280;37774;52.192;4.584;2023-07-28T13:39:20;100814.59;;;24.53;100.00
51687;BME280;37774;52.192;4.584;2023-07-28T13:42:07;100750.50;;;23.76;100.00
51687;BME280;37774;52.192;4.584;2023-07-28T13:44:52;100816.28;;;24.13;100.00
51687;BME280;37774;52.192;4.584;2023-07-28T13:47:41;100823.19;;;24.43;100.00
51687;BME280;37774;52.192;4.584;2023-07-28T13:50:26;100796.22;;;24.09;100.00
51687;BME280;37774;52.192;4.584;2023-07-28T13:53:12;100790.16;;;24.07;100.00
51687;BME280;37774;52.192;4.584;2023-07-28T13:55:59;100809.19;;;23.43;100.00
51687;BME280;37774;52.192;4.584;2023-07-28T13:58:45;100838.81;;;23.64;100.00
51687;BME280;37774;52.192;4.584;2023-07-28T14:01:31;100826.44;;;23.36;100.00
51687;BME280;37774;52.192;4.584;2023-07-28T14:04:16;100817.31;;;23.54;100.00
51687;BME280;37774;52.192;4.584;2023-07-28T14:07:02;100731.47;;;22.99;100.00
51687;BME280;37774;52.192;4.584;2023-07-28T14:09:48;100754.28;;;23.16;100.00
51687;BME280;37774;52.192;4.584;2023-07-28T14:12:34;100756.53;;;23.22;100.00
51687;BME280;37774;52.192;4.584;2023-07-28T14:15:20;100739.50;;;23.12;100.00
51687;BME280;37774;52.192;4.584;2023-07-28T14:18:06;100821.22;;;23.48;100.00
51687;BME280;37774;52.192;4.584;2023-07-28T14:20:51;100784.41;;;23.29;100.00
51687;BME280;37774;52.192;4.584;2023-07-28T14:23:37;100760.03;;;22.79;100.00
51687;BME280;37774;52.192;4.584;2023-07-28T14:26:22;100744.13;;;23.08;100.00